createdAt,value
2022-10-25T00:00:58.420Z,5.65
2022-10-25T00:03:27.753Z,4.75
2022-10-25T00:05:55.741Z,5.00
2022-10-25T00:08:23.705Z,3.95
2022-10-25T00:10:51.667Z,5.60
2022-10-25T00:13:19.691Z,8.68
2022-10-25T00:15:47.702Z,8.02
2022-10-25T00:18:15.686Z,3.55
2022-10-25T00:20:46.740Z,4.97
2022-10-25T00:23:14.932Z,4.25
2022-10-25T00:25:44.594Z,9.27
2022-10-25T00:28:12.697Z,5.10
2022-10-25T00:30:40.678Z,4.80
2022-10-25T00:33:08.641Z,7.00
2022-10-25T00:35:37.710Z,5.47
2022-10-25T00:38:07.007Z,4.25
2022-10-25T00:40:35.154Z,6.85
2022-10-25T00:43:03.121Z,7.22
2022-10-25T00:45:31.254Z,6.32
2022-10-25T00:48:05.434Z,5.20
2022-10-25T00:50:49.026Z,6.50
2022-10-25T00:53:23.855Z,5.78
2022-10-25T00:56:00.210Z,4.97
2022-10-25T00:58:34.908Z,4.70
2022-10-25T01:01:08.191Z,5.43
2022-10-25T01:03:40.529Z,4.13
2022-10-25T01:06:18.763Z,6.43
2022-10-25T01:08:50.983Z,5.07
2022-10-25T01:11:20.841Z,4.40
2022-10-25T01:13:50.193Z,6.05
2022-10-25T01:16:28.335Z,5.03
2022-10-25T01:19:17.353Z,3.97
2022-10-25T01:21:50.751Z,6.33
2022-10-25T01:24:58.980Z,6.72
2022-10-25T01:28:02.149Z,5.43
2022-10-25T01:31:12.889Z,4.53
2022-10-25T01:33:47.986Z,3.80
2022-10-25T01:36:27.151Z,5.50
2022-10-25T01:39:09.912Z,6.63
2022-10-25T01:41:50.310Z,5.60
2022-10-25T01:47:12.214Z,6.63
2022-10-25T01:49:48.106Z,6.68
2022-10-25T01:52:19.372Z,6.68
2022-10-25T01:54:47.330Z,4.80
2022-10-25T01:57:44.444Z,5.70
2022-10-25T02:00:17.818Z,6.82
2022-10-25T02:03:15.062Z,5.43
2022-10-25T02:06:01.946Z,4.00
2022-10-25T02:08:40.968Z,7.63
2022-10-25T02:11:22.267Z,6.70
2022-10-25T02:14:03.981Z,4.97
2022-10-25T02:16:39.155Z,6.18
2022-10-25T02:19:14.596Z,5.57
2022-10-25T02:21:46.342Z,5.00
2022-10-25T02:24:19.105Z,5.60
2022-10-25T02:26:50.870Z,5.27
2022-10-25T02:29:22.138Z,6.93
2022-10-25T02:31:50.340Z,7.13
2022-10-25T02:34:20.784Z,7.87
2022-10-25T02:36:50.104Z,5.60
2022-10-25T02:39:19.461Z,6.73
2022-10-25T02:41:47.439Z,5.73
2022-10-25T02:44:15.531Z,8.00
2022-10-25T02:46:43.855Z,6.93
2022-10-25T02:49:12.007Z,12.20
2022-10-25T02:51:41.385Z,6.27
2022-10-25T02:54:09.389Z,6.10
2022-10-25T02:56:38.662Z,6.27
2022-10-25T02:59:06.658Z,5.50
2022-10-25T03:01:34.774Z,5.85
2022-10-25T03:04:02.819Z,7.57
2022-10-25T03:06:30.957Z,6.68
2022-10-25T03:09:00.292Z,6.63
2022-10-25T03:11:28.422Z,8.17
2022-10-25T03:13:56.441Z,7.60
2022-10-25T03:16:24.409Z,8.03
2022-10-25T03:18:52.446Z,11.93
2022-10-25T03:21:20.398Z,6.67
2022-10-25T03:23:48.361Z,7.13
2022-10-25T03:26:17.677Z,6.50
2022-10-25T03:28:45.671Z,7.43
2022-10-25T03:31:16.631Z,8.73
2022-10-25T03:33:45.072Z,6.33
2022-10-25T03:36:13.016Z,8.03
2022-10-25T03:38:41.394Z,7.80
2022-10-25T03:41:09.550Z,7.03
2022-10-25T03:43:39.013Z,4.87
2022-10-25T03:46:07.375Z,7.03
2022-10-25T03:48:35.327Z,7.70
2022-10-25T03:51:03.344Z,7.63
2022-10-25T03:53:31.353Z,5.67
2022-10-25T03:55:59.333Z,6.38
2022-10-25T03:58:27.329Z,8.53
2022-10-25T04:00:56.689Z,5.27
2022-10-25T04:03:24.836Z,10.97
2022-10-25T04:05:52.805Z,7.47
2022-10-25T04:08:20.759Z,5.07
2022-10-25T04:10:48.807Z,12.10
2022-10-25T04:13:16.900Z,5.18
2022-10-25T04:15:44.980Z,5.83
2022-10-25T04:18:14.298Z,7.82
2022-10-25T04:20:42.268Z,6.77
2022-10-25T04:23:10.226Z,6.07
2022-10-25T04:25:38.313Z,8.55
2022-10-25T04:28:06.387Z,6.77
2022-10-25T04:30:36.640Z,8.25
2022-10-25T04:33:06.757Z,6.07
2022-10-25T04:35:36.238Z,6.20
2022-10-25T04:38:04.258Z,7.07
2022-10-25T04:40:32.273Z,5.93
2022-10-25T04:43:02.310Z,6.20
2022-10-25T04:45:30.898Z,7.37
2022-10-25T04:47:58.904Z,6.20
2022-10-25T04:50:26.867Z,5.50
2022-10-25T04:52:56.194Z,6.77
2022-10-25T04:55:24.137Z,5.70
2022-10-25T04:57:53.104Z,5.13
2022-10-25T05:00:21.156Z,5.17
2022-10-25T05:02:49.438Z,5.03
2022-10-25T05:05:17.808Z,7.47
2022-10-25T05:07:45.807Z,5.40
2022-10-25T05:10:15.198Z,6.00
2022-10-25T05:12:43.453Z,5.73
2022-10-25T05:15:12.295Z,8.17
2022-10-25T05:17:40.256Z,7.20
2022-10-25T05:20:09.387Z,5.50
2022-10-25T05:22:37.358Z,6.97
2022-10-25T05:25:06.433Z,5.73
2022-10-25T05:27:39.355Z,9.77
2022-10-25T05:30:09.019Z,7.43
2022-10-25T05:32:37.232Z,6.10
2022-10-25T05:35:06.330Z,5.80
2022-10-25T05:37:34.318Z,6.97
2022-10-25T05:40:02.291Z,8.27
2022-10-25T05:42:30.262Z,7.73
2022-10-25T05:44:59.594Z,5.20
2022-10-25T05:47:27.582Z,6.43
2022-10-25T05:49:55.528Z,7.20
2022-10-25T05:52:23.522Z,6.30
2022-10-25T05:54:51.488Z,6.53
2022-10-25T05:57:20.435Z,5.37
2022-10-25T05:59:48.417Z,6.30
2022-10-25T06:02:17.953Z,5.10
2022-10-25T06:04:50.127Z,6.40
2022-10-25T06:07:19.663Z,4.73
2022-10-25T06:09:47.568Z,6.33
2022-10-25T06:12:15.602Z,7.03
2022-10-25T06:14:43.588Z,7.70
2022-10-25T06:17:13.088Z,6.10
2022-10-25T06:19:42.406Z,8.67
2022-10-25T06:22:10.477Z,4.68
2022-10-25T06:24:38.444Z,4.93
2022-10-25T06:27:06.454Z,5.47
2022-10-25T06:29:34.438Z,6.50
2022-10-25T06:32:02.509Z,4.10
2022-10-25T06:34:30.598Z,5.32
2022-10-25T06:36:59.919Z,7.97
2022-10-25T06:39:27.943Z,5.10
2022-10-25T06:41:55.889Z,6.40
2022-10-25T06:44:23.886Z,3.45
2022-10-25T06:47:15.903Z,5.93
2022-10-25T06:49:39.886Z,4.88
2022-10-25T06:52:09.306Z,3.53
2022-10-25T06:54:37.270Z,4.97
2022-10-25T06:57:05.270Z,6.75
2022-10-25T06:59:33.228Z,5.55
2022-10-25T07:02:01.363Z,5.80
2022-10-25T07:04:32.406Z,6.65
2022-10-25T07:07:00.543Z,8.48
2022-10-25T07:09:30.389Z,4.13
2022-10-25T07:11:58.511Z,5.28
2022-10-25T07:14:26.487Z,3.97
2022-10-25T07:16:54.553Z,5.32
2022-10-25T07:19:23.906Z,3.13
2022-10-25T07:21:52.789Z,6.95
2022-10-25T07:24:20.803Z,5.90
2022-10-25T07:26:50.120Z,6.03
2022-10-25T07:29:18.103Z,3.97
2022-10-25T07:31:46.255Z,5.22
2022-10-25T07:34:16.403Z,5.35
2022-10-25T07:36:45.382Z,5.55
2022-10-25T07:39:13.936Z,3.42
2022-10-25T07:41:41.991Z,3.75
2022-10-25T07:44:16.116Z,5.13
2022-10-25T07:46:45.557Z,3.42
2022-10-25T07:49:13.798Z,5.05
2022-10-25T07:51:41.769Z,3.63
2022-10-25T07:54:10.587Z,6.85
2022-10-25T07:56:38.602Z,3.10
2022-10-25T07:59:13.648Z,4.53
2022-10-25T08:01:43.057Z,3.25
2022-10-25T08:04:11.163Z,4.68
2022-10-25T08:06:39.126Z,3.20
2022-10-25T08:09:14.533Z,6.40
2022-10-25T08:11:48.434Z,3.85
2022-10-25T08:14:16.613Z,4.28
2022-10-25T08:16:45.955Z,3.67
2022-10-25T08:19:13.981Z,4.13
2022-10-25T08:21:41.967Z,4.90
2022-10-25T08:24:10.590Z,3.95
2022-10-25T08:26:38.562Z,4.65
2022-10-25T08:29:06.589Z,2.72
2022-10-25T08:31:34.653Z,2.80
2022-10-25T08:34:04.911Z,3.95
2022-10-25T08:36:32.943Z,4.20
2022-10-25T08:39:01.182Z,4.85
2022-10-25T08:41:44.609Z,3.80
2022-10-25T08:44:30.098Z,2.95
2022-10-25T08:47:04.275Z,3.92
2022-10-25T08:49:47.849Z,3.47
2022-10-25T08:52:27.342Z,3.30
2022-10-25T08:55:03.206Z,6.10
2022-10-25T08:57:40.588Z,5.72
2022-10-25T09:00:17.413Z,2.85
2022-10-25T09:02:53.358Z,4.03
2022-10-25T09:05:39.085Z,2.88
2022-10-25T09:08:46.092Z,2.65
2022-10-25T09:11:36.243Z,5.45
2022-10-25T09:14:13.791Z,6.20
2022-10-25T09:16:50.925Z,4.07
2022-10-25T09:19:28.127Z,4.30
2022-10-25T09:22:02.416Z,3.70
2022-10-25T09:24:36.553Z,7.45
2022-10-25T09:27:09.878Z,4.07
2022-10-25T09:29:42.564Z,3.53
2022-10-25T09:32:20.402Z,3.67
2022-10-25T09:34:49.125Z,8.02
2022-10-25T09:37:26.407Z,4.13
2022-10-25T09:40:02.111Z,3.72
2022-10-25T09:42:38.506Z,1.92
2022-10-25T09:45:19.350Z,3.83
2022-10-25T09:47:55.597Z,4.38
2022-10-25T09:50:30.795Z,4.10
2022-10-25T09:53:13.168Z,2.97
2022-10-25T09:55:53.086Z,4.05
2022-10-25T09:58:25.169Z,4.85
2022-10-25T10:00:56.681Z,4.53
2022-10-25T10:03:31.577Z,2.35
2022-10-25T10:06:03.901Z,2.92
2022-10-25T10:08:36.588Z,4.72
2022-10-25T10:11:06.279Z,4.47
2022-10-25T10:13:43.934Z,3.88
2022-10-25T10:16:22.963Z,4.15
2022-10-25T10:18:51.187Z,3.80
2022-10-25T10:21:22.144Z,3.75
2022-10-25T10:23:55.411Z,2.85
2022-10-25T10:26:31.172Z,2.72
2022-10-25T10:29:17.487Z,4.72
2022-10-25T10:31:49.421Z,2.97
2022-10-25T10:34:31.567Z,3.50
2022-10-25T10:37:15.218Z,4.47
2022-10-25T10:39:54.677Z,5.78
2022-10-25T10:42:24.774Z,4.10
2022-10-25T10:45:15.685Z,2.50
2022-10-25T10:47:46.846Z,3.67
2022-10-25T10:50:26.446Z,4.55
2022-10-25T10:53:00.840Z,2.92
2022-10-25T10:55:33.640Z,3.58
2022-10-25T10:58:08.074Z,4.20
2022-10-25T11:00:36.319Z,2.75
2022-10-25T11:03:04.467Z,4.10
2022-10-25T11:05:35.092Z,3.75
2022-10-25T11:08:18.385Z,2.58
2022-10-25T11:10:47.696Z,6.03
2022-10-25T11:13:18.528Z,4.15
2022-10-25T11:16:33.994Z,3.00
2022-10-25T11:19:31.807Z,3.08
2022-10-25T11:22:49.187Z,2.75
2022-10-25T11:25:34.638Z,4.00
2022-10-25T11:28:31.823Z,5.30
2022-10-25T11:31:11.428Z,4.00
2022-10-25T11:33:57.487Z,3.13
2022-10-25T11:36:59.262Z,2.28
2022-10-25T11:39:48.566Z,2.67
2022-10-25T11:42:41.647Z,3.85
2022-10-25T11:45:44.981Z,4.40
2022-10-25T11:48:34.917Z,1.95
2022-10-25T11:51:15.338Z,3.15
2022-10-25T11:54:14.032Z,4.82
2022-10-25T11:56:56.552Z,2.70
2022-10-25T11:59:38.309Z,2.65
2022-10-25T12:02:35.419Z,3.45
2022-10-25T12:05:22.727Z,19.20
2022-10-25T12:08:03.047Z,3.85
2022-10-25T12:10:38.285Z,6.13
2022-10-25T12:13:17.163Z,3.63
2022-10-25T12:15:48.985Z,3.00
2022-10-25T12:18:26.177Z,1.90
2022-10-25T12:20:56.069Z,4.68
2022-10-25T12:23:28.882Z,4.47
2022-10-25T12:26:05.909Z,4.28
2022-10-25T12:28:45.553Z,3.50
2022-10-25T12:31:20.039Z,4.32
2022-10-25T12:33:56.536Z,4.70
2022-10-25T12:36:36.142Z,1.70
2022-10-25T12:39:15.227Z,3.92
2022-10-25T12:41:49.831Z,1.60
2022-10-25T12:44:46.754Z,1.90
2022-10-25T12:47:55.147Z,4.80
2022-10-25T12:50:45.466Z,1.55
2022-10-25T12:54:04.061Z,2.80
2022-10-25T12:56:53.129Z,2.65
2022-10-25T12:59:42.854Z,2.22
2022-10-25T13:02:55.308Z,3.05
2022-10-25T13:06:15.240Z,1.60
2022-10-25T13:08:44.678Z,2.75
2022-10-25T13:11:13.522Z,5.55
2022-10-25T13:13:51.667Z,4.93
2022-10-25T13:16:28.880Z,2.90
2022-10-25T13:19:53.195Z,2.92
2022-10-25T13:22:37.787Z,2.47
2022-10-25T13:25:39.151Z,3.88
2022-10-25T13:28:34.054Z,4.47
2022-10-25T13:31:47.000Z,4.28
2022-10-25T13:34:41.112Z,2.28
2022-10-25T13:37:45.684Z,2.67
2022-10-25T13:40:27.193Z,2.40
2022-10-25T13:43:06.521Z,3.28
2022-10-25T13:45:42.830Z,1.98
2022-10-25T13:48:26.634Z,2.45
2022-10-25T13:50:57.778Z,2.63
2022-10-25T13:53:35.988Z,1.98
2022-10-25T13:56:08.816Z,3.33
2022-10-25T13:58:48.721Z,4.47
2022-10-25T14:01:55.625Z,2.40
2022-10-25T14:04:39.969Z,3.60
2022-10-25T14:07:47.721Z,3.85
2022-10-25T14:10:27.309Z,2.20
2022-10-25T14:13:09.036Z,3.58
2022-10-25T14:15:48.669Z,3.38
2022-10-25T14:18:22.075Z,5.15
2022-10-25T14:20:56.516Z,3.17
2022-10-25T14:23:30.135Z,2.90
2022-10-25T14:26:01.919Z,6.80
2022-10-25T14:28:32.252Z,4.00
2022-10-25T14:31:02.492Z,2.17
2022-10-25T14:33:36.620Z,2.78
2022-10-25T14:36:28.371Z,4.53
2022-10-25T14:38:59.911Z,2.15
2022-10-25T14:41:31.901Z,3.78
2022-10-25T14:44:00.473Z,2.55
2022-10-25T14:46:31.032Z,2.78
2022-10-25T14:49:01.219Z,4.55
2022-10-25T14:51:32.886Z,2.33
2022-10-25T14:54:06.792Z,1.83
2022-10-25T14:56:41.663Z,1.52
2022-10-25T14:59:26.322Z,3.40
2022-10-25T15:01:58.080Z,3.15
2022-10-25T15:04:36.131Z,2.95
2022-10-25T15:07:04.914Z,2.72
2022-10-25T15:09:49.229Z,2.92
2022-10-25T15:12:22.769Z,2.65
2022-10-25T15:14:50.923Z,4.22
2022-10-25T15:17:30.692Z,4.82
2022-10-25T15:20:01.272Z,5.00
2022-10-25T15:22:32.743Z,3.35
2022-10-25T15:25:00.881Z,4.03
2022-10-25T15:27:44.599Z,5.10
2022-10-25T15:30:38.322Z,3.60
2022-10-25T15:33:11.639Z,4.38
2022-10-25T15:35:50.588Z,4.38
2022-10-25T15:38:19.500Z,3.17
2022-10-25T15:40:49.100Z,2.53
2022-10-25T15:43:18.416Z,2.70
2022-10-25T15:45:46.850Z,4.65
2022-10-25T15:48:18.704Z,3.38
2022-10-25T15:50:51.246Z,2.83
2022-10-25T15:53:19.680Z,2.53
2022-10-25T15:55:49.064Z,2.72
2022-10-25T15:58:18.947Z,2.42
2022-10-25T16:00:47.932Z,4.32
2022-10-25T16:03:22.831Z,3.17
2022-10-25T16:05:52.399Z,2.90
2022-10-25T16:08:20.420Z,5.20
2022-10-25T16:10:48.416Z,4.55
2022-10-25T16:13:30.462Z,4.43
2022-10-25T16:15:59.042Z,3.90
2022-10-25T16:18:29.428Z,3.83
2022-10-25T16:20:59.074Z,3.03
2022-10-25T16:23:28.184Z,3.17
2022-10-25T16:25:57.189Z,4.13
2022-10-25T16:30:59.310Z,4.70
2022-10-25T16:33:27.227Z,2.88
2022-10-25T16:35:55.158Z,4.38
2022-10-25T16:38:23.059Z,4.22
2022-10-25T16:40:51.107Z,4.35
2022-10-25T16:43:19.005Z,5.75
2022-10-25T16:45:48.290Z,4.10
2022-10-25T16:48:16.626Z,6.57
2022-10-25T16:50:44.767Z,4.10
2022-10-25T16:53:14.846Z,4.45
2022-10-25T16:55:43.098Z,4.20
2022-10-25T16:58:11.472Z,6.75
2022-10-25T17:00:39.412Z,7.90
2022-10-25T17:03:09.989Z,8.27
2022-10-25T17:05:39.733Z,6.05
2022-10-25T17:08:07.638Z,6.45
2022-10-25T17:10:36.038Z,5.70
2022-10-25T17:13:05.353Z,7.85
2022-10-25T17:15:33.536Z,6.40
2022-10-25T17:18:01.466Z,6.25
2022-10-25T17:20:30.744Z,5.93
2022-10-25T17:22:58.658Z,5.88
2022-10-25T17:25:26.600Z,5.05
2022-10-25T17:27:55.211Z,5.80
2022-10-25T17:30:23.165Z,6.25
2022-10-25T17:32:51.546Z,5.05
2022-10-25T17:35:27.051Z,6.03
2022-10-25T17:37:58.795Z,7.40
2022-10-25T17:40:26.813Z,7.28
2022-10-25T17:42:55.794Z,5.57
2022-10-25T17:45:23.741Z,9.43
2022-10-25T17:47:51.697Z,12.98
2022-10-25T17:50:22.113Z,10.98
2022-10-25T17:52:51.644Z,9.10
2022-10-25T17:55:20.984Z,8.65
2022-10-25T17:57:50.032Z,8.63
2022-10-25T18:00:18.676Z,7.30
2022-10-25T18:02:50.517Z,5.93
2022-10-25T18:05:20.879Z,5.55
2022-10-25T18:07:50.121Z,7.57
2022-10-25T18:10:20.517Z,7.40
2022-10-25T18:12:49.193Z,6.72
2022-10-25T18:15:17.659Z,6.05
2022-10-25T18:17:46.758Z,6.03
2022-10-25T18:20:15.538Z,8.80
2022-10-25T18:22:43.588Z,7.18
2022-10-25T18:25:12.449Z,6.20
2022-10-25T18:27:41.750Z,5.47
2022-10-25T18:30:12.020Z,6.93
2022-10-25T18:32:39.967Z,5.45
2022-10-25T18:35:08.906Z,7.73
2022-10-25T18:37:36.803Z,9.27
2022-10-25T18:40:05.913Z,8.20
2022-10-25T18:42:35.627Z,7.27
2022-10-25T18:45:06.634Z,8.38
2022-10-25T18:47:34.938Z,9.73
2022-10-25T18:50:02.912Z,8.53
2022-10-25T18:52:30.872Z,6.33
2022-10-25T18:54:58.809Z,6.75
2022-10-25T18:57:26.739Z,6.17
2022-10-25T18:59:54.698Z,7.93
2022-10-25T19:02:24.104Z,7.30
2022-10-25T19:04:52.129Z,9.33
2022-10-25T19:07:20.071Z,10.50
2022-10-25T19:09:48.052Z,10.80
2022-10-25T19:12:16.056Z,9.27
2022-10-25T19:14:44.010Z,10.57
2022-10-25T19:17:12.112Z,11.13
2022-10-25T19:19:41.441Z,10.63
2022-10-25T19:22:09.379Z,9.30
2022-10-25T19:24:38.266Z,8.53
2022-10-25T19:27:06.244Z,9.73
2022-10-25T19:29:34.189Z,8.17
2022-10-25T19:32:02.191Z,8.97
2022-10-25T19:34:30.162Z,8.20
2022-10-25T19:37:04.129Z,9.03
2022-10-25T19:39:32.312Z,7.90
2022-10-25T19:42:00.319Z,8.87
2022-10-25T19:44:28.340Z,9.33
2022-10-25T19:46:56.323Z,7.67
2022-10-25T19:49:24.316Z,9.10
2022-10-25T19:51:52.326Z,8.93
2022-10-25T19:54:21.679Z,8.80
2022-10-25T19:56:50.924Z,7.33
2022-10-25T19:59:19.131Z,9.43
2022-10-25T20:01:48.772Z,7.53
2022-10-25T20:04:16.832Z,7.67
2022-10-25T20:06:45.029Z,6.30
2022-10-25T20:09:13.006Z,8.40
2022-10-25T20:11:42.442Z,10.40
2022-10-25T20:14:10.399Z,8.43
2022-10-25T20:16:38.695Z,8.03
2022-10-25T20:19:06.695Z,7.27
2022-10-25T20:21:37.500Z,7.80
2022-10-25T20:24:09.688Z,8.23
2022-10-25T20:26:40.807Z,8.93
2022-10-25T20:29:20.338Z,10.20
2022-10-25T20:31:50.886Z,8.17
2022-10-25T20:34:19.796Z,7.87
2022-10-25T20:36:47.883Z,7.90
2022-10-25T20:39:16.365Z,10.63
2022-10-25T20:41:44.483Z,9.83
2022-10-25T20:44:14.645Z,9.70
2022-10-25T20:46:42.848Z,9.87
2022-10-25T20:49:10.832Z,8.57
2022-10-25T20:51:38.921Z,9.77
2022-10-25T20:54:09.453Z,8.93
2022-10-25T20:56:39.286Z,8.50
2022-10-25T20:59:07.647Z,8.57
2022-10-25T21:01:37.342Z,9.50
2022-10-25T21:04:06.100Z,8.37
2022-10-25T21:06:34.086Z,10.13
2022-10-25T21:09:02.166Z,9.10
2022-10-25T21:11:30.173Z,9.37
2022-10-25T21:13:58.203Z,8.00
2022-10-25T21:16:26.218Z,9.43
2022-10-25T21:18:55.525Z,8.27
2022-10-25T21:21:23.489Z,8.50
2022-10-25T21:23:56.464Z,9.40
2022-10-25T21:26:24.778Z,7.83
2022-10-25T21:28:52.735Z,9.77
2022-10-25T21:31:20.765Z,8.07
2022-10-25T21:33:51.284Z,9.80
2022-10-25T21:36:22.022Z,10.47
2022-10-25T21:38:50.148Z,9.17
2022-10-25T21:41:26.428Z,8.63
2022-10-25T21:43:55.843Z,9.40
2022-10-25T21:46:26.637Z,7.50
2022-10-25T21:48:55.867Z,8.13
2022-10-25T21:51:25.826Z,8.13
2022-10-25T21:53:54.370Z,8.13
2022-10-25T21:56:30.571Z,7.70
2022-10-25T21:59:01.196Z,9.30
2022-10-25T22:01:31.441Z,8.07
2022-10-25T22:03:59.963Z,8.53
2022-10-25T22:06:30.378Z,8.97
2022-10-25T22:08:58.430Z,7.63
2022-10-25T22:11:29.123Z,7.10
2022-10-25T22:14:00.007Z,7.50
2022-10-25T22:16:29.364Z,10.73
2022-10-25T22:19:00.374Z,10.97
2022-10-25T22:21:32.893Z,6.63
2022-10-25T22:24:00.965Z,10.03
2022-10-25T22:26:29.287Z,7.27
2022-10-25T22:29:00.218Z,8.57
2022-10-25T22:31:30.410Z,6.80
2022-10-25T22:34:00.601Z,7.87
2022-10-25T22:36:32.385Z,9.50
2022-10-25T22:39:00.761Z,6.17
2022-10-25T22:41:30.725Z,9.80
2022-10-25T22:43:59.584Z,6.97
2022-10-25T22:46:30.460Z,6.80
2022-10-25T22:49:00.990Z,7.60
2022-10-25T22:51:30.326Z,7.50
2022-10-25T22:53:58.320Z,6.63
2022-10-25T22:56:28.528Z,7.03
2022-10-25T22:58:59.702Z,9.23
2022-10-25T23:01:30.436Z,8.67
2022-10-25T23:04:00.444Z,5.90
2022-10-25T23:06:33.282Z,7.57
2022-10-25T23:09:04.670Z,8.23
2022-10-25T23:11:35.582Z,9.63
2022-10-25T23:14:05.171Z,7.87
2022-10-25T23:16:33.191Z,8.70
2022-10-25T23:19:01.515Z,8.13
2022-10-25T23:21:31.737Z,6.77
2022-10-25T23:24:01.219Z,10.60
2022-10-25T23:26:32.033Z,6.90
2022-10-25T23:29:01.804Z,8.37
2022-10-25T23:31:31.424Z,9.43
2022-10-25T23:34:01.850Z,7.93
2022-10-25T23:36:37.238Z,9.20
2022-10-25T23:39:07.260Z,7.70
2022-10-25T23:41:35.472Z,7.73
2022-10-25T23:44:03.662Z,7.13
2022-10-25T23:46:31.791Z,8.37
2022-10-25T23:48:59.957Z,7.57
2022-10-25T23:51:27.923Z,8.93
2022-10-25T23:53:57.225Z,10.57
2022-10-25T23:56:25.270Z,6.73
2022-10-25T23:58:53.980Z,8.60
